Time;durP1;ratioP1;P1;durP2;ratioP2;P2;SDS_P1;SDS_P2;PMS_P1;PMS_P2;Temp;Humidity;BMP_temperature;BMP_pressure;BME280_temperature;BME280_humidity;BME280_pressure;Samples;Min_cycle;Max_cycle;Signal;HPM_P1;HPM_P2
2023/08/11 00:00:21;;;;;;;11.05;3.67;;;;;;;;;;5033577;28;20017;-72
2023/08/11 00:02:46;;;;;;;10.57;3.47;;;;;;;;;;5039852;28;20044;-72
2023/08/11 00:05:11;;;;;;;7.07;3.58;;;;;;;;;;5051955;28;20477;-72
2023/08/11 00:07:36;;;;;;;7.88;3.70;;;;;;;;;;5052290;28;20024;-67
2023/08/11 00:10:03;;;;;;;8.30;3.75;;;;;;;;;;5052093;28;20025;-71
2023/08/11 00:12:28;;;;;;;7.85;3.42;;;;;;;;;;5046491;28;20021;-72
2023/08/11 00:14:53;;;;;;;13.52;3.65;;;;;;;;;;5033331;28;20366;-72
2023/08/11 00:17:19;;;;;;;10.73;3.72;;;;;;;;;;5032451;28;20518;-71
2023/08/11 00:19:44;;;;;;;7.32;3.92;;;;;;;;;;5035193;28;20036;-72
2023/08/11 00:22:09;;;;;;;6.95;3.45;;;;;;;;;;5034520;28;20019;-72
2023/08/11 00:24:35;;;;;;;9.55;3.72;;;;;;;;;;5032262;28;20021;-71
2023/08/11 00:27:03;;;;;;;7.60;3.20;;;;;;;;;;5036960;28;20637;-72
2023/08/11 00:29:30;;;;;;;7.47;3.78;;;;;;;;;;5037630;28;20027;-72
2023/08/11 00:31:55;;;;;;;9.75;3.85;;;;;;;;;;5032438;28;20374;-72
2023/08/11 00:34:21;;;;;;;11.52;4.00;;;;;;;;;;5014157;28;20028;-72
2023/08/11 00:36:46;;;;;;;9.60;4.25;;;;;;;;;;5033198;28;20017;-72
2023/08/11 00:39:13;;;;;;;10.40;4.13;;;;;;;;;;5033106;28;20045;-70
2023/08/11 00:41:38;;;;;;;10.05;3.90;;;;;;;;;;5032828;28;20035;-72
2023/08/11 00:44:03;;;;;;;6.57;4.05;;;;;;;;;;5032759;28;20101;-72
2023/08/11 00:46:29;;;;;;;10.00;4.35;;;;;;;;;;5032009;28;20014;-72
2023/08/11 00:48:54;;;;;;;9.15;4.72;;;;;;;;;;5032497;28;20013;-71
2023/08/11 00:51:22;;;;;;;7.65;3.75;;;;;;;;;;5035624;28;20028;-72
2023/08/11 00:53:47;;;;;;;10.35;4.53;;;;;;;;;;5051538;28;20465;-72
2023/08/11 00:56:13;;;;;;;7.35;4.10;;;;;;;;;;5050924;28;20020;-71
2023/08/11 00:58:38;;;;;;;10.10;4.20;;;;;;;;;;5051022;28;20016;-71
2023/08/11 01:04:07;;;;;;;8.88;4.47;;;;;;;;;;5061010;22;20097;-67
2023/08/11 01:06:41;;;;;;;13.98;4.80;;;;;;;;;;5071273;28;20042;-67
2023/08/11 01:09:09;;;;;;;8.23;4.60;;;;;;;;;;5059177;28;20461;-67
2023/08/11 01:11:40;;;;;;;15.25;4.70;;;;;;;;;;5065550;28;20017;-67
2023/08/11 01:14:17;;;;;;;7.78;4.35;;;;;;;;;;5071671;28;20472;-67
2023/08/11 01:16:44;;;;;;;7.82;4.30;;;;;;;;;;5071069;28;20040;-67
2023/08/11 01:19:12;;;;;;;9.48;4.07;;;;;;;;;;5062035;28;20025;-67
2023/08/11 01:21:40;;;;;;;9.05;4.72;;;;;;;;;;5071717;28;20522;-67
2023/08/11 01:24:05;;;;;;;11.35;4.93;;;;;;;;;;5071867;28;20024;-67
2023/08/11 01:26:31;;;;;;;9.27;5.03;;;;;;;;;;5072020;28;20095;-67
2023/08/11 01:28:56;;;;;;;11.02;5.78;;;;;;;;;;5068078;28;20021;-67
2023/08/11 01:31:21;;;;;;;9.13;5.63;;;;;;;;;;5065955;28;20078;-67
2023/08/11 01:33:47;;;;;;;10.40;5.88;;;;;;;;;;5066573;28;20035;-67
2023/08/11 01:36:12;;;;;;;11.93;5.80;;;;;;;;;;5064445;28;20135;-67
2023/08/11 01:38:37;;;;;;;17.63;6.85;;;;;;;;;;5058761;28;20060;-67
2023/08/11 01:41:02;;;;;;;12.32;6.15;;;;;;;;;;5062253;28;20029;-67
2023/08/11 01:43:29;;;;;;;10.52;6.22;;;;;;;;;;5071393;28;20371;-67
2023/08/11 01:45:54;;;;;;;8.75;5.90;;;;;;;;;;5075259;28;20028;-67
2023/08/11 01:48:20;;;;;;;10.38;6.10;;;;;;;;;;5069499;28;20081;-67
2023/08/11 01:50:46;;;;;;;15.45;6.57;;;;;;;;;;5074242;28;20028;-68
2023/08/11 01:53:12;;;;;;;13.88;6.68;;;;;;;;;;5065270;28;20025;-68
2023/08/11 01:55:37;;;;;;;13.85;7.28;;;;;;;;;;5061852;28;20053;-67
2023/08/11 01:58:03;;;;;;;14.60;6.65;;;;;;;;;;5075106;28;20060;-67
2023/08/11 02:00:28;;;;;;;12.57;7.05;;;;;;;;;;5062772;28;20016;-67
2023/08/11 02:02:53;;;;;;;11.60;6.60;;;;;;;;;;5057199;28;20028;-67
2023/08/11 02:05:19;;;;;;;13.75;7.10;;;;;;;;;;5063784;28;20423;-67
2023/08/11 02:07:44;;;;;;;12.57;7.28;;;;;;;;;;5068620;28;20036;-67
2023/08/11 02:10:11;;;;;;;14.27;7.88;;;;;;;;;;5060361;28;20017;-67
2023/08/11 02:12:38;;;;;;;12.98;7.40;;;;;;;;;;5058001;28;20037;-67
2023/08/11 02:15:05;;;;;;;14.75;7.43;;;;;;;;;;5068955;28;20103;-67
2023/08/11 02:17:31;;;;;;;12.48;7.40;;;;;;;;;;5072741;28;20476;-67
2023/08/11 02:19:56;;;;;;;11.75;7.28;;;;;;;;;;5063492;28;20107;-67
2023/08/11 02:22:21;;;;;;;16.20;7.95;;;;;;;;;;5068502;28;20024;-67
2023/08/11 02:24:47;;;;;;;13.18;7.65;;;;;;;;;;5066736;28;20082;-67
2023/08/11 02:27:13;;;;;;;16.95;7.82;;;;;;;;;;5060721;28;20021;-67
2023/08/11 02:29:38;;;;;;;13.02;8.15;;;;;;;;;;5066311;28;20100;-67
2023/08/11 02:32:03;;;;;;;15.60;8.25;;;;;;;;;;5069364;28;20052;-67
2023/08/11 02:34:30;;;;;;;13.52;8.55;;;;;;;;;;5066202;28;20043;-67
2023/08/11 02:36:55;;;;;;;12.50;8.05;;;;;;;;;;5058345;28;20019;-67
2023/08/11 02:39:21;;;;;;;11.88;8.48;;;;;;;;;;5057197;28;20108;-67
2023/08/11 02:41:46;;;;;;;12.77;8.50;;;;;;;;;;5054965;28;20013;-67
2023/08/11 02:44:12;;;;;;;13.50;8.27;;;;;;;;;;5058526;28;20029;-67
2023/08/11 02:46:37;;;;;;;16.60;8.35;;;;;;;;;;5065226;28;20021;-67
2023/08/11 02:49:03;;;;;;;12.95;8.80;;;;;;;;;;5063420;28;20168;-67
2023/08/11 02:51:28;;;;;;;14.73;9.07;;;;;;;;;;5065126;28;20045;-67
2023/08/11 02:53:53;;;;;;;14.18;8.85;;;;;;;;;;5071311;28;20146;-67
2023/08/11 02:56:19;;;;;;;15.10;9.18;;;;;;;;;;5066033;28;20123;-67
2023/08/11 02:58:44;;;;;;;15.43;9.25;;;;;;;;;;5067222;28;20033;-67
2023/08/11 03:01:09;;;;;;;15.18;8.50;;;;;;;;;;5055125;28;20032;-67
2023/08/11 03:03:35;;;;;;;13.13;8.77;;;;;;;;;;5056475;28;20044;-67
2023/08/11 03:06:00;;;;;;;13.80;9.07;;;;;;;;;;5059217;28;20078;-67
2023/08/11 03:08:25;;;;;;;14.00;8.68;;;;;;;;;;5060636;28;20392;-67
2023/08/11 03:10:51;;;;;;;15.60;8.75;;;;;;;;;;5064309;28;20477;-67
2023/08/11 03:13:16;;;;;;;19.92;9.52;;;;;;;;;;5063163;28;20384;-67
2023/08/11 03:15:42;;;;;;;16.52;9.07;;;;;;;;;;5057690;28;20025;-67
2023/08/11 03:18:07;;;;;;;15.30;9.63;;;;;;;;;;5056721;28;20033;-67
2023/08/11 03:20:32;;;;;;;15.23;9.40;;;;;;;;;;5073296;28;20021;-67
2023/08/11 03:22:58;;;;;;;13.95;9.13;;;;;;;;;;5072001;28;20029;-67
2023/08/11 03:25:23;;;;;;;13.43;8.82;;;;;;;;;;5064921;28;20017;-67
2023/08/11 03:27:50;;;;;;;16.10;9.40;;;;;;;;;;5054000;28;20074;-67
2023/08/11 03:30:15;;;;;;;17.33;9.48;;;;;;;;;;5061051;28;20377;-67
2023/08/11 03:32:40;;;;;;;14.90;9.23;;;;;;;;;;5072228;28;20079;-67
2023/08/11 03:35:06;;;;;;;16.25;9.20;;;;;;;;;;5066233;28;20114;-63
2023/08/11 03:37:32;;;;;;;16.55;9.80;;;;;;;;;;5062188;28;20017;-64
2023/08/11 03:39:58;;;;;;;15.10;9.18;;;;;;;;;;5069107;28;20031;-63
2023/08/11 03:42:23;;;;;;;18.58;10.75;;;;;;;;;;5064817;28;20472;-63
2023/08/11 03:44:49;;;;;;;17.45;11.73;;;;;;;;;;5066899;28;20127;-65
2023/08/11 03:47:14;;;;;;;19.83;11.13;;;;;;;;;;5067752;28;20016;-63
2023/08/11 03:49:39;;;;;;;17.83;11.57;;;;;;;;;;5058556;28;20182;-63
2023/08/11 03:52:05;;;;;;;16.35;11.55;;;;;;;;;;5055997;28;20036;-63
2023/08/11 03:54:30;;;;;;;22.20;11.80;;;;;;;;;;5060727;28;20024;-63
2023/08/11 03:56:56;;;;;;;19.10;12.40;;;;;;;;;;5059780;28;20032;-64
2023/08/11 03:59:21;;;;;;;25.58;13.88;;;;;;;;;;5057335;28;20471;-64
2023/08/11 04:01:46;;;;;;;19.30;13.45;;;;;;;;;;5067336;28;20562;-63
2023/08/11 04:04:12;;;;;;;20.45;13.10;;;;;;;;;;5063012;28;20049;-63
2023/08/11 04:06:37;;;;;;;17.52;13.00;;;;;;;;;;5059669;28;20369;-63
2023/08/11 04:09:02;;;;;;;26.63;15.32;;;;;;;;;;5059056;28;20051;-64
2023/08/11 04:11:29;;;;;;;25.75;16.02;;;;;;;;;;5063277;28;20074;-64
2023/08/11 04:13:54;;;;;;;21.83;14.45;;;;;;;;;;5060547;28;20494;-64
2023/08/11 04:16:21;;;;;;;28.92;16.27;;;;;;;;;;5064141;28;20064;-63
2023/08/11 04:18:46;;;;;;;26.10;15.00;;;;;;;;;;5062608;28;20468;-63
2023/08/11 04:21:11;;;;;;;23.63;15.68;;;;;;;;;;5071606;28;20074;-63
2023/08/11 04:23:37;;;;;;;26.55;16.08;;;;;;;;;;5068129;28;20023;-63
2023/08/11 04:26:04;;;;;;;27.85;17.00;;;;;;;;;;5069738;28;20016;-64
2023/08/11 04:28:29;;;;;;;26.80;16.23;;;;;;;;;;5070367;28;20449;-64
2023/08/11 04:30:55;;;;;;;23.17;14.45;;;;;;;;;;5066918;28;20119;-63
2023/08/11 04:33:21;;;;;;;21.58;14.52;;;;;;;;;;5064675;28;20476;-64
2023/08/11 04:35:48;;;;;;;26.45;14.40;;;;;;;;;;5065265;28;20031;-64
2023/08/11 04:38:13;;;;;;;21.83;15.05;;;;;;;;;;5063373;28;20500;-64
2023/08/11 04:40:38;;;;;;;23.15;14.38;;;;;;;;;;5056771;28;20048;-64
2023/08/11 04:43:04;;;;;;;26.13;15.63;;;;;;;;;;5068026;28;20025;-63
2023/08/11 04:45:32;;;;;;;22.80;14.35;;;;;;;;;;5064099;28;20067;-65
2023/08/11 04:47:57;;;;;;;15.63;11.15;;;;;;;;;;5057184;28;20549;-63
2023/08/11 04:50:23;;;;;;;18.48;9.70;;;;;;;;;;5067773;28;20024;-63
2023/08/11 04:52:48;;;;;;;11.98;8.23;;;;;;;;;;5067321;28;20099;-62
2023/08/11 04:55:13;;;;;;;13.10;7.50;;;;;;;;;;5058239;28;20016;-62
2023/08/11 04:57:38;;;;;;;12.43;7.07;;;;;;;;;;5062488;28;20117;-61
2023/08/11 05:00:06;;;;;;;13.60;6.47;;;;;;;;;;5061679;28;20020;-61
2023/08/11 05:02:32;;;;;;;12.45;6.60;;;;;;;;;;5057775;28;20025;-61
2023/08/11 05:04:58;;;;;;;11.38;5.60;;;;;;;;;;5066956;28;20045;-63
2023/08/11 05:07:23;;;;;;;11.88;5.80;;;;;;;;;;5064528;28;20082;-61
2023/08/11 05:09:49;;;;;;;8.82;4.82;;;;;;;;;;5062903;28;20040;-60
2023/08/11 05:12:16;;;;;;;9.30;5.70;;;;;;;;;;5066859;28;20435;-61
2023/08/11 05:14:42;;;;;;;8.95;5.38;;;;;;;;;;5061882;28;20024;-60
2023/08/11 05:17:08;;;;;;;15.25;5.88;;;;;;;;;;5071113;28;20453;-61
2023/08/11 05:19:34;;;;;;;13.82;5.20;;;;;;;;;;5060033;28;20441;-61
2023/08/11 05:21:59;;;;;;;8.45;5.28;;;;;;;;;;5052224;28;20036;-60
2023/08/11 05:24:24;;;;;;;10.02;5.22;;;;;;;;;;5054669;28;20024;-62
2023/08/11 05:26:50;;;;;;;10.15;4.78;;;;;;;;;;5063643;28;20092;-61
2023/08/11 05:29:15;;;;;;;8.02;4.65;;;;;;;;;;5066584;28;20024;-60
2023/08/11 05:31:40;;;;;;;11.05;5.05;;;;;;;;;;5061375;28;20024;-61
2023/08/11 05:34:09;;;;;;;9.38;4.88;;;;;;;;;;5064266;28;20465;-60
2023/08/11 05:36:34;;;;;;;8.05;4.60;;;;;;;;;;5059347;28;20029;-61
2023/08/11 05:38:59;;;;;;;10.75;4.70;;;;;;;;;;5055509;28;20032;-61
2023/08/11 05:41:25;;;;;;;7.57;4.55;;;;;;;;;;5066895;28;20074;-60
2023/08/11 05:43:50;;;;;;;11.07;4.70;;;;;;;;;;5062597;28;20482;-61
2023/08/11 05:46:15;;;;;;;10.02;4.40;;;;;;;;;;5060035;28;20498;-60
2023/08/11 05:48:41;;;;;;;7.88;4.30;;;;;;;;;;5062791;28;20032;-61
2023/08/11 05:51:06;;;;;;;8.50;4.20;;;;;;;;;;5059886;28;20020;-60
2023/08/11 05:53:31;;;;;;;8.02;4.00;;;;;;;;;;5057025;28;20024;-62
2023/08/11 05:55:57;;;;;;;8.40;3.70;;;;;;;;;;5065992;28;20075;-65
2023/08/11 05:58:22;;;;;;;11.30;4.20;;;;;;;;;;5051700;28;20013;-65
2023/08/11 06:00:48;;;;;;;6.15;3.65;;;;;;;;;;5051880;28;20389;-65
2023/08/11 06:03:13;;;;;;;8.77;3.58;;;;;;;;;;5049317;28;20041;-65
2023/08/11 06:05:39;;;;;;;9.07;3.70;;;;;;;;;;5034729;28;20083;-66
2023/08/11 06:08:04;;;;;;;7.85;4.13;;;;;;;;;;5038506;28;20385;-65
2023/08/11 06:10:30;;;;;;;8.40;3.80;;;;;;;;;;5033413;28;20016;-64
2023/08/11 06:12:56;;;;;;;8.38;3.53;;;;;;;;;;5038576;28;20523;-65
2023/08/11 06:15:21;;;;;;;6.60;3.28;;;;;;;;;;5037643;28;20014;-65
2023/08/11 06:17:49;;;;;;;5.97;3.13;;;;;;;;;;5038197;28;20374;-66
2023/08/11 06:20:15;;;;;;;5.13;3.13;;;;;;;;;;5043602;28;20075;-65
2023/08/11 06:22:40;;;;;;;7.30;3.38;;;;;;;;;;5039624;28;20013;-65
2023/08/11 06:25:06;;;;;;;5.47;3.20;;;;;;;;;;5041101;28;20021;-65
2023/08/11 06:27:31;;;;;;;7.85;3.58;;;;;;;;;;5046471;28;20025;-65
2023/08/11 06:29:56;;;;;;;6.90;3.20;;;;;;;;;;5053070;28;20013;-65
2023/08/11 06:32:22;;;;;;;5.43;2.70;;;;;;;;;;5053821;28;20108;-65
2023/08/11 06:34:47;;;;;;;7.97;2.80;;;;;;;;;;5047665;28;20022;-65
2023/08/11 06:37:12;;;;;;;7.00;2.72;;;;;;;;;;5041718;28;20052;-65
2023/08/11 06:39:37;;;;;;;7.05;2.70;;;;;;;;;;5049682;28;20021;-63
2023/08/11 06:42:03;;;;;;;8.55;2.30;;;;;;;;;;5045020;28;20413;-63
2023/08/11 06:44:28;;;;;;;4.05;2.20;;;;;;;;;;5047230;28;20414;-65
2023/08/11 06:46:53;;;;;;;4.93;2.33;;;;;;;;;;5034803;28;20009;-65
2023/08/11 06:49:19;;;;;;;5.32;2.20;;;;;;;;;;5035259;28;20377;-65
2023/08/11 06:51:44;;;;;;;4.60;2.10;;;;;;;;;;5034725;28;20043;-65
2023/08/11 06:54:09;;;;;;;7.30;2.25;;;;;;;;;;5034842;28;20025;-65
2023/08/11 06:56:35;;;;;;;4.13;2.10;;;;;;;;;;5035022;28;20032;-65
2023/08/11 06:59:00;;;;;;;4.95;2.33;;;;;;;;;;5034709;28;20092;-65
2023/08/11 07:01:26;;;;;;;5.43;2.70;;;;;;;;;;5034969;28;20466;-65
2023/08/11 07:03:51;;;;;;;5.80;2.10;;;;;;;;;;5040323;28;20056;-65
2023/08/11 07:06:16;;;;;;;4.78;2.20;;;;;;;;;;5051834;28;20556;-65
2023/08/11 07:08:42;;;;;;;6.25;1.90;;;;;;;;;;5036438;28;20025;-65
2023/08/11 07:11:07;;;;;;;4.38;1.80;;;;;;;;;;5034294;28;20381;-65
2023/08/11 07:13:33;;;;;;;7.45;1.77;;;;;;;;;;5034429;28;20428;-65
2023/08/11 07:15:58;;;;;;;7.13;2.08;;;;;;;;;;5036855;28;20071;-65
2023/08/11 07:18:23;;;;;;;3.90;1.63;;;;;;;;;;5034306;28;20025;-66
2023/08/11 07:20:49;;;;;;;4.30;1.70;;;;;;;;;;5034332;28;20017;-65
2023/08/11 07:23:16;;;;;;;11.95;1.80;;;;;;;;;;5036884;28;20005;-65
2023/08/11 07:25:41;;;;;;;5.68;1.60;;;;;;;;;;5034537;28;20554;-66
2023/08/11 07:28:06;;;;;;;4.15;1.67;;;;;;;;;;5034040;28;20013;-65
2023/08/11 07:30:32;;;;;;;6.93;1.65;;;;;;;;;;5034124;28;20014;-65
2023/08/11 07:32:57;;;;;;;6.47;1.95;;;;;;;;;;5034083;28;20141;-66
2023/08/11 07:35:23;;;;;;;5.00;1.70;;;;;;;;;;5034099;28;20020;-66
2023/08/11 07:37:48;;;;;;;7.78;1.50;;;;;;;;;;5047559;28;20017;-66
2023/08/11 07:40:13;;;;;;;6.85;1.50;;;;;;;;;;5051664;28;20025;-66
2023/08/11 07:42:39;;;;;;;4.45;1.58;;;;;;;;;;5052640;28;20064;-66
2023/08/11 07:45:04;;;;;;;4.57;1.60;;;;;;;;;;5052375;28;20056;-66
2023/08/11 07:47:32;;;;;;;4.53;1.70;;;;;;;;;;5052602;28;20024;-66
2023/08/11 07:49:57;;;;;;;4.82;1.70;;;;;;;;;;5044382;28;20473;-66
2023/08/11 07:52:22;;;;;;;11.65;1.85;;;;;;;;;;5033765;28;20021;-67
2023/08/11 07:54:48;;;;;;;3.08;1.33;;;;;;;;;;5033587;28;20017;-67
2023/08/11 07:57:13;;;;;;;4.30;1.50;;;;;;;;;;5033611;28;20036;-66
2023/08/11 07:59:38;;;;;;;3.58;1.48;;;;;;;;;;5033422;28;20060;-67
2023/08/11 08:02:03;;;;;;;3.88;1.60;;;;;;;;;;5033939;28;20140;-67
2023/08/11 08:04:29;;;;;;;3.78;1.50;;;;;;;;;;5057232;28;20105;-66
2023/08/11 08:06:54;;;;;;;3.25;1.40;;;;;;;;;;5069352;28;20501;-66
2023/08/11 08:09:19;;;;;;;3.85;1.42;;;;;;;;;;5058189;28;20024;-67
2023/08/11 08:11:46;;;;;;;3.65;1.58;;;;;;;;;;5057912;28;20033;-65
2023/08/11 08:14:11;;;;;;;2.72;1.20;;;;;;;;;;5053543;28;20016;-66
2023/08/11 08:16:37;;;;;;;2.95;1.30;;;;;;;;;;5058762;28;20021;-66
2023/08/11 08:19:05;;;;;;;3.20;1.20;;;;;;;;;;5052973;28;20393;-66
2023/08/11 08:21:31;;;;;;;3.63;1.40;;;;;;;;;;5053037;28;20017;-66
2023/08/11 08:23:56;;;;;;;4.32;1.20;;;;;;;;;;5056734;28;20023;-66
2023/08/11 08:26:21;;;;;;;4.45;1.20;;;;;;;;;;5057272;28;20457;-66
2023/08/11 08:28:47;;;;;;;2.95;1.10;;;;;;;;;;5053232;28;20019;-67
2023/08/11 08:31:13;;;;;;;3.97;1.10;;;;;;;;;;5052966;28;20100;-67
2023/08/11 08:33:38;;;;;;;3.75;1.30;;;;;;;;;;5052842;28;20029;-66
2023/08/11 08:36:03;;;;;;;2.15;0.93;;;;;;;;;;5052897;28;20025;-66
2023/08/11 08:38:28;;;;;;;2.47;0.93;;;;;;;;;;5058690;28;20032;-67
2023/08/11 08:40:54;;;;;;;2.97;1.10;;;;;;;;;;5053058;28;20045;-66
2023/08/11 08:43:19;;;;;;;2.78;1.10;;;;;;;;;;5053531;28;20346;-66
2023/08/11 08:45:45;;;;;;;3.55;1.10;;;;;;;;;;5071658;28;20013;-67
2023/08/11 08:48:19;;;;;;;1.98;0.80;;;;;;;;;;5071595;28;20460;-66
2023/08/11 08:50:44;;;;;;;4.22;1.00;;;;;;;;;;5063332;28;20016;-66
2023/08/11 08:53:10;;;;;;;2.95;1.00;;;;;;;;;;5070812;28;20495;-67
2023/08/11 08:55:35;;;;;;;1.95;0.77;;;;;;;;;;5071789;28;20013;-67
2023/08/11 08:58:00;;;;;;;1.90;0.80;;;;;;;;;;5071039;28;20017;-67
2023/08/11 09:00:26;;;;;;;2.28;1.00;;;;;;;;;;5070616;28;20459;-67
2023/08/11 09:02:51;;;;;;;3.28;0.90;;;;;;;;;;5071229;28;20027;-66
2023/08/11 09:05:17;;;;;;;4.35;1.08;;;;;;;;;;5056591;28;20060;-66
2023/08/11 09:07:43;;;;;;;2.47;1.00;;;;;;;;;;5055782;28;20020;-67
2023/08/11 09:10:08;;;;;;;2.03;0.80;;;;;;;;;;5052319;28;20036;-66
2023/08/11 09:12:34;;;;;;;2.75;0.93;;;;;;;;;;5055731;28;20017;-67
2023/08/11 09:15:05;;;;;;;2.97;0.80;;;;;;;;;;5071305;28;20396;-67
2023/08/11 09:17:30;;;;;;;2.80;0.95;;;;;;;;;;5071219;28;20040;-67
2023/08/11 09:19:55;;;;;;;2.80;1.10;;;;;;;;;;5071063;28;20059;-66
2023/08/11 09:22:24;;;;;;;1.92;0.90;;;;;;;;;;5071176;28;20047;-67
2023/08/11 09:24:49;;;;;;;2.40;0.90;;;;;;;;;;5065454;28;20108;-66
2023/08/11 09:27:15;;;;;;;2.42;0.80;;;;;;;;;;5055799;28;20100;-67
2023/08/11 09:29:40;;;;;;;3.97;0.82;;;;;;;;;;5052346;28;20146;-67
2023/08/11 09:32:06;;;;;;;2.50;0.90;;;;;;;;;;5052524;28;20017;-66
2023/08/11 09:34:31;;;;;;;2.03;0.75;;;;;;;;;;5052136;28;20440;-67
2023/08/11 09:36:56;;;;;;;3.75;0.70;;;;;;;;;;5052037;28;20098;-67
2023/08/11 09:39:21;;;;;;;3.70;0.70;;;;;;;;;;5055104;28;20024;-66
2023/08/11 09:41:47;;;;;;;2.42;0.70;;;;;;;;;;5052030;28;20385;-67
2023/08/11 09:44:17;;;;;;;3.13;0.80;;;;;;;;;;5052221;28;20021;-67
2023/08/11 09:46:42;;;;;;;2.15;0.70;;;;;;;;;;5052145;28;20040;-67
2023/08/11 09:49:07;;;;;;;2.45;0.80;;;;;;;;;;5051891;28;20493;-67
2023/08/11 09:51:34;;;;;;;2.55;0.60;;;;;;;;;;5053418;28;20021;-68
2023/08/11 09:54:01;;;;;;;2.10;0.60;;;;;;;;;;5052098;28;20033;-66
2023/08/11 09:56:26;;;;;;;1.80;0.60;;;;;;;;;;5059289;28;20090;-67
2023/08/11 09:58:52;;;;;;;2.25;0.70;;;;;;;;;;5051998;28;20021;-67
2023/08/11 10:01:19;;;;;;;1.23;0.55;;;;;;;;;;5052091;28;20480;-67
2023/08/11 10:03:45;;;;;;;1.98;0.70;;;;;;;;;;5056977;28;20094;-67
2023/08/11 10:06:13;;;;;;;4.97;0.85;;;;;;;;;;5074061;28;20013;-67
2023/08/11 10:08:39;;;;;;;1.92;0.70;;;;;;;;;;5057289;28;20067;-68
2023/08/11 10:11:04;;;;;;;2.30;0.85;;;;;;;;;;5059730;28;20064;-67
2023/08/11 10:13:31;;;;;;;2.25;0.70;;;;;;;;;;5055611;28;20021;-67
2023/08/11 10:15:57;;;;;;;2.00;0.70;;;;;;;;;;5055463;28;20028;-67
2023/08/11 10:18:23;;;;;;;3.00;0.70;;;;;;;;;;5055217;28;20017;-67
2023/08/11 10:20:50;;;;;;;2.10;0.70;;;;;;;;;;5056393;28;20124;-67
2023/08/11 10:23:16;;;;;;;1.55;0.57;;;;;;;;;;5057871;28;20074;-67
2023/08/11 10:25:41;;;;;;;2.13;0.80;;;;;;;;;;5061489;28;20017;-67
2023/08/11 10:28:10;;;;;;;2.58;0.80;;;;;;;;;;5074281;28;20017;-68
2023/08/11 10:30:36;;;;;;;2.88;0.70;;;;;;;;;;5059183;28;20013;-67
2023/08/11 10:33:04;;;;;;;1.70;0.70;;;;;;;;;;5055236;28;20100;-67
2023/08/11 10:35:34;;;;;;;2.53;0.60;;;;;;;;;;5055318;28;20021;-67
2023/08/11 10:37:59;;;;;;;2.83;0.63;;;;;;;;;;5055284;28;20029;-67
2023/08/11 10:40:35;;;;;;;2.83;0.90;;;;;;;;;;5054871;28;20048;-67
2023/08/11 10:43:01;;;;;;;2.22;0.70;;;;;;;;;;5055156;28;20020;-67
2023/08/11 10:45:26;;;;;;;3.95;0.70;;;;;;;;;;5068800;28;20061;-67
2023/08/11 10:47:53;;;;;;;2.00;0.70;;;;;;;;;;5073436;28;20021;-66
2023/08/11 10:50:18;;;;;;;2.25;0.80;;;;;;;;;;5073728;28;20023;-66
2023/08/11 10:52:45;;;;;;;3.03;0.80;;;;;;;;;;5059051;28;20021;-67
2023/08/11 10:55:10;;;;;;;1.85;0.60;;;;;;;;;;5060653;28;20020;-68
2023/08/11 10:57:36;;;;;;;2.05;0.70;;;;;;;;;;5054948;28;20381;-65
2023/08/11 11:00:01;;;;;;;1.67;0.80;;;;;;;;;;5054785;28;20013;-66
2023/08/11 11:02:26;;;;;;;4.35;1.00;;;;;;;;;;5055003;28;20016;-67
2023/08/11 11:04:52;;;;;;;2.22;0.90;;;;;;;;;;5039033;28;20061;-66
2023/08/11 11:07:20;;;;;;;2.70;1.00;;;;;;;;;;5037331;28;20021;-66
2023/08/11 11:09:45;;;;;;;1.65;0.68;;;;;;;;;;5034494;28;20104;-66
2023/08/11 11:12:10;;;;;;;4.15;1.00;;;;;;;;;;5034672;28;20107;-66
2023/08/11 11:14:36;;;;;;;3.20;0.80;;;;;;;;;;5034568;28;20013;-66
2023/08/11 11:17:03;;;;;;;2.75;0.75;;;;;;;;;;5034620;28;20430;-66
2023/08/11 11:19:29;;;;;;;2.30;0.90;;;;;;;;;;5039731;28;20469;-69
2023/08/11 11:21:55;;;;;;;2.22;1.00;;;;;;;;;;5034750;28;20415;-67
2023/08/11 11:24:20;;;;;;;4.40;0.90;;;;;;;;;;5034512;28;20020;-67
2023/08/11 11:26:45;;;;;;;3.00;0.90;;;;;;;;;;5034525;28;20017;-67
2023/08/11 11:29:11;;;;;;;4.78;1.15;;;;;;;;;;5034140;28;20025;-67
2023/08/11 11:31:38;;;;;;;3.17;1.10;;;;;;;;;;5036794;28;20021;-68
2023/08/11 11:34:04;;;;;;;3.58;1.10;;;;;;;;;;5034370;28;20351;-69
2023/08/11 11:36:29;;;;;;;2.47;1.10;;;;;;;;;;5034436;28;20029;-68
2023/08/11 11:38:55;;;;;;;2.20;1.20;;;;;;;;;;5034144;28;20083;-69
2023/08/11 11:41:20;;;;;;;3.13;1.30;;;;;;;;;;5034317;28;20472;-69
2023/08/11 11:43:46;;;;;;;5.00;1.50;;;;;;;;;;5033950;28;20028;-71
2023/08/11 11:46:14;;;;;;;4.93;1.30;;;;;;;;;;5037723;28;20028;-70
2023/08/11 11:48:50;;;;;;;3.22;1.40;;;;;;;;;;5033953;28;20395;-72
2023/08/11 11:51:17;;;;;;;2.92;1.23;;;;;;;;;;5038501;28;20021;-72
2023/08/11 11:53:42;;;;;;;3.67;1.10;;;;;;;;;;5052165;28;20017;-72
2023/08/11 11:56:08;;;;;;;4.13;1.30;;;;;;;;;;5052162;28;20017;-71
2023/08/11 11:58:33;;;;;;;3.03;1.30;;;;;;;;;;5052541;28;20028;-72
2023/08/11 12:01:17;;;;;;;3.95;1.30;;;;;;;;;;5052376;28;20025;-71
2023/08/11 12:03:46;;;;;;;3.75;1.25;;;;;;;;;;5057726;28;20459;-65
2023/08/11 12:06:12;;;;;;;4.10;1.40;;;;;;;;;;5062268;28;20021;-65
2023/08/11 12:08:43;;;;;;;3.92;1.40;;;;;;;;;;5054429;28;20416;-65
2023/08/11 12:11:12;;;;;;;4.15;1.42;;;;;;;;;;5053312;28;20021;-65
2023/08/11 12:13:38;;;;;;;6.40;1.42;;;;;;;;;;5053481;28;20458;-65
2023/08/11 12:16:05;;;;;;;2.97;1.40;;;;;;;;;;5053364;28;20017;-66
2023/08/11 12:18:30;;;;;;;2.92;1.30;;;;;;;;;;5053436;28;20377;-65
2023/08/11 12:21:00;;;;;;;3.38;1.38;;;;;;;;;;5053251;28;20015;-66
2023/08/11 12:23:26;;;;;;;4.72;1.50;;;;;;;;;;5060605;28;20472;-64
2023/08/11 12:25:52;;;;;;;3.05;1.20;;;;;;;;;;5058491;28;20052;-67
2023/08/11 12:28:18;;;;;;;4.05;1.40;;;;;;;;;;5052846;28;20025;-66
2023/08/11 12:30:43;;;;;;;3.42;1.42;;;;;;;;;;5053155;28;20115;-66
2023/08/11 12:33:08;;;;;;;4.88;1.40;;;;;;;;;;5055396;28;20389;-66
2023/08/11 12:35:34;;;;;;;3.37;1.30;;;;;;;;;;5052829;28;20013;-67
2023/08/11 12:37:59;;;;;;;4.07;1.33;;;;;;;;;;5052766;28;20247;-67
2023/08/11 12:40:25;;;;;;;3.47;1.20;;;;;;;;;;5052544;28;20021;-65
2023/08/11 12:42:51;;;;;;;3.75;1.63;;;;;;;;;;5071342;28;20017;-66
2023/08/11 12:45:16;;;;;;;4.72;1.50;;;;;;;;;;5071447;28;20017;-66
2023/08/11 12:47:42;;;;;;;6.15;1.45;;;;;;;;;;5071366;28;20633;-67
2023/08/11 12:50:08;;;;;;;3.20;1.40;;;;;;;;;;5071383;28;20016;-66
2023/08/11 12:52:34;;;;;;;4.93;1.45;;;;;;;;;;5071397;28;20503;-67
2023/08/11 12:54:59;;;;;;;2.72;1.20;;;;;;;;;;5070885;28;20017;-66
2023/08/11 12:57:24;;;;;;;3.35;1.20;;;;;;;;;;5071370;28;20468;-67
2023/08/11 12:59:50;;;;;;;4.65;1.45;;;;;;;;;;5071014;28;20023;-67
2023/08/11 13:02:15;;;;;;;4.68;1.20;;;;;;;;;;5071053;28;20365;-67
2023/08/11 13:04:40;;;;;;;4.97;1.50;;;;;;;;;;5055576;28;20072;-66
2023/08/11 13:07:05;;;;;;;3.42;1.33;;;;;;;;;;5054770;28;20025;-69
2023/08/11 13:09:31;;;;;;;3.03;1.30;;;;;;;;;;5052732;28;20021;-68
2023/08/11 13:11:56;;;;;;;4.53;1.42;;;;;;;;;;5052587;28;20100;-66
2023/08/11 13:14:21;;;;;;;3.28;1.33;;;;;;;;;;5055878;28;20427;-78
2023/08/11 13:16:47;;;;;;;4.40;1.20;;;;;;;;;;5062009;28;20020;-75
2023/08/11 13:19:12;;;;;;;4.20;1.27;;;;;;;;;;5065801;28;20021;-78
2023/08/11 13:21:37;;;;;;;3.95;1.40;;;;;;;;;;5065572;28;20021;-76
2023/08/11 13:24:03;;;;;;;3.28;1.30;;;;;;;;;;5064531;28;20017;-74
2023/08/11 13:26:28;;;;;;;3.95;1.30;;;;;;;;;;5058529;28;20017;-75
2023/08/11 13:28:57;;;;;;;3.55;1.35;;;;;;;;;;5061508;28;20106;-77
2023/08/11 13:31:22;;;;;;;3.30;1.65;;;;;;;;;;5058194;28;20024;-78
2023/08/11 13:33:47;;;;;;;4.68;1.30;;;;;;;;;;5063052;28;20055;-74
2023/08/11 13:36:12;;;;;;;3.58;1.33;;;;;;;;;;5061759;28;20538;-78
2023/08/11 13:38:38;;;;;;;4.57;1.73;;;;;;;;;;5054591;28;20029;-78
2023/08/11 13:41:03;;;;;;;4.82;1.45;;;;;;;;;;5067660;28;20354;-78
2023/08/11 13:43:28;;;;;;;4.13;1.40;;;;;;;;;;5068843;28;20024;-77
2023/08/11 13:45:54;;;;;;;7.28;1.65;;;;;;;;;;5060287;28;20025;-78
2023/08/11 13:48:20;;;;;;;3.95;1.50;;;;;;;;;;5062025;28;20017;-76
2023/08/11 13:50:45;;;;;;;4.40;1.70;;;;;;;;;;5060417;28;20029;-76
2023/08/11 13:53:11;;;;;;;4.65;1.45;;;;;;;;;;5056295;28;20015;-74
2023/08/11 13:55:36;;;;;;;3.78;1.55;;;;;;;;;;5067392;28;20016;-82
2023/08/11 13:58:02;;;;;;;6.03;1.63;;;;;;;;;;5077432;28;20019;-79
2023/08/11 14:00:27;;;;;;;6.45;1.60;;;;;;;;;;5075413;28;20016;-80
2023/08/11 14:02:53;;;;;;;9.00;1.73;;;;;;;;;;5075159;28;20016;-79
2023/08/11 14:05:18;;;;;;;5.97;1.70;;;;;;;;;;5038288;28;20038;-77
2023/08/11 14:07:47;;;;;;;4.63;1.40;;;;;;;;;;5046059;28;20123;-79
2023/08/11 14:10:12;;;;;;;6.03;1.60;;;;;;;;;;5051721;28;20013;-79
2023/08/11 14:12:37;;;;;;;4.43;1.70;;;;;;;;;;5038706;28;20028;-81
2023/08/11 14:15:03;;;;;;;3.72;1.50;;;;;;;;;;5039753;28;20009;-80
2023/08/11 14:17:28;;;;;;;4.57;1.63;;;;;;;;;;5039087;28;20021;-80
2023/08/11 14:19:53;;;;;;;3.45;1.40;;;;;;;;;;5038580;28;20029;-81
2023/08/11 14:22:19;;;;;;;4.22;1.58;;;;;;;;;;5037675;28;20021;-79
2023/08/11 14:24:44;;;;;;;4.93;1.80;;;;;;;;;;5040953;28;20020;-79
2023/08/11 14:27:09;;;;;;;3.15;1.58;;;;;;;;;;5038306;28;20053;-81
2023/08/11 14:29:35;;;;;;;4.32;1.80;;;;;;;;;;5038549;28;20017;-82
2023/08/11 14:32:00;;;;;;;5.60;1.60;;;;;;;;;;5041449;28;20025;-80